createdAt,value
2023-02-04T00:00:15.742Z,97547.28
2023-02-04T00:01:37.794Z,97552.21
2023-02-04T00:02:40.979Z,97550.52
2023-02-04T00:03:42.821Z,97554.02
2023-02-04T00:04:44.734Z,97554.73
2023-02-04T00:05:46.601Z,97561.10
2023-02-04T00:06:48.613Z,97561.55
2023-02-04T00:07:50.870Z,97566.14
2023-02-04T00:08:53.084Z,97571.98
2023-02-04T00:09:55.249Z,97574.59
2023-02-04T00:10:57.530Z,97576.73
2023-02-04T00:11:59.599Z,97581.32
2023-02-04T00:13:01.810Z,97584.57
2023-02-04T00:14:03.694Z,97585.78
2023-02-04T00:15:06.213Z,97589.48
2023-02-04T00:16:08.185Z,97588.73
2023-02-04T00:17:13.210Z,97595.85
2023-02-04T00:18:15.073Z,97600.38
2023-02-04T00:19:17.224Z,97605.88
2023-02-04T00:20:19.877Z,97608.88
2023-02-04T00:21:21.724Z,97614.38
2023-02-04T00:22:23.868Z,97619.97
2023-02-04T00:23:25.624Z,97626.10
2023-02-04T00:24:27.555Z,97625.94
2023-02-04T00:25:29.705Z,97630.64
2023-02-04T00:26:31.424Z,97637.36
2023-02-04T00:27:33.474Z,97637.19
2023-02-04T00:28:35.680Z,97644.98
2023-02-04T00:29:37.507Z,97651.13
2023-02-04T00:30:39.793Z,97651.16
2023-02-04T00:31:41.859Z,97655.20
2023-02-04T00:32:44.552Z,97654.54
2023-02-04T00:33:47.167Z,97656.19
2023-02-04T00:34:49.359Z,97659.42
2023-02-04T00:35:51.296Z,97662.41
2023-02-04T00:36:53.200Z,97662.65
2023-02-04T00:37:56.538Z,97665.38
2023-02-04T00:38:58.312Z,97664.31
2023-02-04T00:40:00.326Z,97669.42
2023-02-04T00:41:02.134Z,97673.52
2023-02-04T00:42:05.714Z,97674.50
2023-02-04T00:43:07.543Z,97679.70
2023-02-04T00:44:09.530Z,97682.48
2023-02-04T00:45:12.851Z,97684.30
2023-02-04T00:46:14.875Z,97689.04
2023-02-04T00:47:16.823Z,97691.59
2023-02-04T00:48:18.715Z,97690.77
2023-02-04T00:49:20.608Z,97697.88
2023-02-04T00:50:23.601Z,97703.14
2023-02-04T00:51:25.591Z,97707.23
2023-02-04T00:52:27.509Z,97710.30
2023-02-04T00:53:29.312Z,97713.49
2023-02-04T00:54:32.516Z,97718.70
2023-02-04T00:55:34.429Z,97729.00
2023-02-04T00:56:36.368Z,97733.52
2023-02-04T00:57:38.956Z,97733.27
2023-02-04T00:58:40.801Z,97743.89
2023-02-04T00:59:43.227Z,97744.87
2023-02-04T01:00:45.594Z,97746.73
2023-02-04T01:01:47.594Z,97752.05
2023-02-04T01:02:49.654Z,97752.67
2023-02-04T01:03:51.473Z,97756.78
2023-02-04T01:04:53.358Z,97762.71
2023-02-04T01:05:55.497Z,97768.41
2023-02-04T01:06:57.349Z,97772.80
2023-02-04T01:07:59.334Z,97780.38
2023-02-04T01:09:01.959Z,97786.67
2023-02-04T01:10:04.383Z,97791.65
2023-02-04T01:11:06.434Z,97793.05
2023-02-04T01:12:08.204Z,97795.86
2023-02-04T01:13:10.121Z,97798.05
2023-02-04T01:14:12.422Z,97800.84
2023-02-04T01:15:14.507Z,97800.45
2023-02-04T01:16:16.645Z,97806.32
2023-02-04T01:17:19.952Z,97812.33
2023-02-04T01:18:21.893Z,97811.77
2023-02-04T01:19:23.801Z,97818.44
2023-02-04T01:20:25.997Z,97822.48
2023-02-04T01:21:28.031Z,97827.12
2023-02-04T01:22:30.301Z,97832.98
2023-02-04T01:23:32.486Z,97844.52
2023-02-04T01:24:34.443Z,97844.68
2023-02-04T01:25:55.472Z,97849.79
2023-02-04T01:26:57.256Z,97852.29
2023-02-04T01:27:59.061Z,97860.17
2023-02-04T01:29:00.959Z,97860.48
2023-02-04T01:30:04.653Z,97864.80
2023-02-04T01:31:06.778Z,97869.41
2023-02-04T01:32:08.732Z,97874.71
2023-02-04T01:33:11.004Z,97882.61
2023-02-04T01:34:12.954Z,97886.07
2023-02-04T01:35:14.837Z,97888.60
2023-02-04T01:36:21.777Z,97890.80
2023-02-04T01:37:23.783Z,97900.53
2023-02-04T01:38:27.065Z,97894.17
2023-02-04T01:39:28.810Z,97903.91
2023-02-04T01:40:32.042Z,97906.34
2023-02-04T01:41:34.078Z,97910.45
2023-02-04T01:42:36.134Z,97911.56
2023-02-04T01:43:38.127Z,97916.08
2023-02-04T01:44:40.429Z,97919.21
2023-02-04T01:45:43.461Z,97924.09
2023-02-04T01:46:46.486Z,97922.30
2023-02-04T01:47:48.872Z,97929.52
2023-02-04T01:48:51.075Z,97936.23
2023-02-04T01:49:55.997Z,97937.65
2023-02-04T01:51:05.197Z,97946.66
2023-02-04T01:52:07.670Z,97956.90
2023-02-04T01:53:09.574Z,97955.52
2023-02-04T01:54:15.283Z,97965.54
2023-02-04T01:55:20.544Z,97968.79
2023-02-04T01:56:26.738Z,97977.05
2023-02-04T01:57:30.938Z,97984.05
2023-02-04T01:58:33.532Z,97982.95
2023-02-04T01:59:35.732Z,97990.39
2023-02-04T02:00:40.123Z,97996.75
2023-02-04T02:01:45.470Z,98006.36
2023-02-04T02:02:50.786Z,98011.77
2023-02-04T02:03:54.231Z,98020.88
2023-02-04T02:04:57.287Z,98022.42
2023-02-04T02:06:00.792Z,98029.86
2023-02-04T02:07:06.401Z,98034.05
2023-02-04T02:08:11.111Z,98038.17
2023-02-04T02:09:13.389Z,98047.84
2023-02-04T02:10:18.305Z,98049.14
2023-02-04T02:11:20.644Z,98053.29
2023-02-04T02:12:22.928Z,98057.52
2023-02-04T02:13:24.873Z,98060.61
2023-02-04T02:14:27.348Z,98060.98
2023-02-04T02:15:29.779Z,98062.62
2023-02-04T02:16:32.351Z,98074.98
2023-02-04T02:17:34.232Z,98081.40
2023-02-04T02:18:36.620Z,98083.55
2023-02-04T02:19:41.525Z,98089.57
2023-02-04T02:20:45.475Z,98101.17
2023-02-04T02:22:27.277Z,98104.52
2023-02-04T02:23:49.631Z,98115.58
2023-02-04T02:24:51.434Z,98117.65
2023-02-04T02:25:54.301Z,98124.13
2023-02-04T02:27:00.313Z,98127.30
2023-02-04T02:28:07.498Z,98131.79
2023-02-04T02:29:09.463Z,98131.42
2023-02-04T02:30:17.848Z,98133.30
2023-02-04T02:31:22.805Z,98138.67
2023-02-04T02:32:25.832Z,98140.33
2023-02-04T02:33:28.331Z,98149.94
2023-02-04T02:34:31.136Z,98152.55
2023-02-04T02:35:33.435Z,98157.36
2023-02-04T02:36:35.627Z,98157.27
2023-02-04T02:37:37.754Z,98165.75
2023-02-04T02:38:41.844Z,98171.33
2023-02-04T02:39:46.257Z,98178.97
2023-02-04T02:40:49.913Z,98181.60
2023-02-04T02:41:52.139Z,98188.39
2023-02-04T02:42:55.340Z,98193.14
2023-02-04T02:43:57.386Z,98197.86
2023-02-04T02:45:03.503Z,98200.09
2023-02-04T02:46:06.904Z,98206.69
2023-02-04T02:47:15.407Z,98219.37
2023-02-04T02:48:18.215Z,98222.58
2023-02-04T02:49:21.334Z,98230.19
2023-02-04T02:50:26.840Z,98228.88
2023-02-04T02:51:29.883Z,98238.11
2023-02-04T02:52:32.154Z,98243.90
2023-02-04T02:53:34.181Z,98253.77
2023-02-04T02:54:36.855Z,98260.20
2023-02-04T02:55:40.154Z,98269.20
2023-02-04T02:56:42.084Z,98275.46
2023-02-04T02:57:49.534Z,98280.94
2023-02-04T02:58:51.428Z,98291.48
2023-02-04T02:59:53.533Z,98291.39
2023-02-04T03:00:57.843Z,98300.91
2023-02-04T03:02:03.700Z,98308.38
2023-02-04T03:03:18.326Z,98310.65
2023-02-04T03:04:22.900Z,98313.16
2023-02-04T03:05:26.767Z,98324.35
2023-02-04T03:06:28.665Z,98331.30
2023-02-04T03:07:30.800Z,98327.52
2023-02-04T03:08:33.791Z,98337.24
2023-02-04T03:09:36.957Z,98339.69
2023-02-04T03:10:39.309Z,98346.88
2023-02-04T03:11:41.566Z,98354.81
2023-02-04T03:12:45.774Z,98362.58
2023-02-04T03:13:49.847Z,98365.91
2023-02-04T03:14:52.653Z,98377.43
2023-02-04T03:15:56.423Z,98378.52
2023-02-04T03:17:02.861Z,98380.21
2023-02-04T03:18:05.136Z,98384.70
2023-02-04T03:19:08.531Z,98388.84
2023-02-04T03:20:13.309Z,98388.41
2023-02-04T03:21:15.702Z,98388.38
2023-02-04T03:22:17.684Z,98395.09
2023-02-04T03:23:20.682Z,98399.35
2023-02-04T03:24:23.237Z,98400.73
2023-02-04T03:25:28.180Z,98400.45
2023-02-04T03:26:32.377Z,98407.15
2023-02-04T03:27:34.485Z,98415.53
2023-02-04T03:28:41.924Z,98416.26
2023-02-04T03:29:45.463Z,98431.25
2023-02-04T03:30:53.885Z,98435.02
2023-02-04T03:31:56.409Z,98433.67
2023-02-04T03:32:58.616Z,98439.98
2023-02-04T03:34:00.431Z,98445.55
2023-02-04T03:35:02.184Z,98448.43
2023-02-04T03:36:04.249Z,98454.66
2023-02-04T03:37:06.210Z,98455.73
2023-02-04T03:38:08.266Z,98456.31
2023-02-04T03:39:10.064Z,98465.35
2023-02-04T03:40:13.542Z,98470.34
2023-02-04T03:41:15.476Z,98480.23
2023-02-04T03:42:17.824Z,98479.84
2023-02-04T03:43:19.837Z,98486.64
2023-02-04T03:44:22.712Z,98487.23
2023-02-04T03:45:25.051Z,98492.37
2023-02-04T03:46:28.837Z,98499.48
2023-02-04T03:47:31.206Z,98495.16
2023-02-04T03:48:33.047Z,98499.45
2023-02-04T03:49:36.175Z,98502.04
2023-02-04T03:50:38.061Z,98505.05
2023-02-04T03:51:40.000Z,98511.27
2023-02-04T03:52:41.943Z,98518.10
2023-02-04T03:53:43.885Z,98526.14
2023-02-04T03:54:46.418Z,98537.66
2023-02-04T03:55:48.306Z,98537.74
2023-02-04T03:56:50.216Z,98552.05
2023-02-04T03:57:53.525Z,98555.48
2023-02-04T03:58:55.704Z,98564.58
2023-02-04T03:59:57.670Z,98569.18
2023-02-04T04:00:59.633Z,98574.95
2023-02-04T04:02:01.638Z,98577.98
2023-02-04T04:03:03.738Z,98582.90
2023-02-04T04:04:05.678Z,98587.54
2023-02-04T04:05:08.958Z,98592.09
2023-02-04T04:06:11.266Z,98594.46
2023-02-04T04:07:13.304Z,98599.71
2023-02-04T04:08:15.558Z,98602.21
2023-02-04T04:09:17.513Z,98606.48
2023-02-04T04:10:19.553Z,98613.75
2023-02-04T04:11:22.083Z,98615.38
2023-02-04T04:12:23.957Z,98616.11
2023-02-04T04:13:26.055Z,98617.01
2023-02-04T04:14:28.036Z,98621.58
2023-02-04T04:15:30.833Z,98624.45
2023-02-04T04:16:32.666Z,98632.98
2023-02-04T04:17:34.440Z,98636.02
2023-02-04T04:18:36.422Z,98651.57
2023-02-04T04:19:38.324Z,98658.45
2023-02-04T04:20:40.175Z,98663.45
2023-02-04T04:21:41.977Z,98666.18
2023-02-04T04:22:45.654Z,98674.24
2023-02-04T04:23:47.970Z,98675.23
2023-02-04T04:24:49.783Z,98685.92
2023-02-04T04:25:51.573Z,98686.98
2023-02-04T04:26:53.349Z,98685.42
2023-02-04T04:27:55.467Z,98689.77
2023-02-04T04:28:57.453Z,98687.15
2023-02-04T04:29:59.578Z,98694.34
2023-02-04T04:31:01.707Z,98690.73
2023-02-04T04:32:05.309Z,98690.39
2023-02-04T04:33:07.334Z,98701.67
2023-02-04T04:34:09.318Z,98710.48
2023-02-04T04:35:11.310Z,98709.79
2023-02-04T04:36:14.914Z,98713.16
2023-02-04T04:37:17.099Z,98720.23
2023-02-04T04:38:18.895Z,98730.41
2023-02-04T04:39:20.846Z,98739.20
2023-02-04T04:40:22.718Z,98737.73
2023-02-04T04:41:24.526Z,98743.36
2023-02-04T04:42:26.380Z,98751.52
2023-02-04T04:43:28.281Z,98754.48
2023-02-04T04:44:30.345Z,98761.80
2023-02-04T04:45:32.286Z,98764.86
2023-02-04T04:46:34.335Z,98770.47
2023-02-04T04:47:36.247Z,98774.66
2023-02-04T04:48:38.382Z,98772.60
2023-02-04T04:49:40.346Z,98779.54
2023-02-04T04:50:42.552Z,98781.11
2023-02-04T04:51:44.588Z,98784.69
2023-02-04T04:52:46.621Z,98789.95
2023-02-04T04:53:48.828Z,98791.83
2023-02-04T04:54:50.973Z,98796.29
2023-02-04T04:55:53.226Z,98803.15
2023-02-04T04:56:55.795Z,98809.96
2023-02-04T04:57:57.817Z,98808.56
2023-02-04T04:58:59.803Z,98809.42
2023-02-04T05:00:01.988Z,98815.51
2023-02-04T05:01:04.240Z,98814.14
2023-02-04T05:02:06.086Z,98823.83
2023-02-04T05:03:07.951Z,98824.20
2023-02-04T05:04:09.730Z,98827.22
2023-02-04T05:05:13.324Z,98830.79
2023-02-04T05:06:15.986Z,98839.39
2023-02-04T05:07:17.885Z,98843.88
2023-02-04T05:08:20.958Z,98849.66
2023-02-04T05:09:23.043Z,98853.23
2023-02-04T05:10:25.309Z,98863.17
2023-02-04T05:11:27.173Z,98871.05
2023-02-04T05:12:29.047Z,98874.40
2023-02-04T05:13:30.985Z,98882.17
2023-02-04T05:14:33.016Z,98883.46
2023-02-04T05:15:35.789Z,98888.80
2023-02-04T05:16:37.766Z,98893.35
2023-02-04T05:17:39.940Z,98897.66
2023-02-04T05:18:42.221Z,98899.65
2023-02-04T05:19:44.099Z,98899.71
2023-02-04T05:20:45.968Z,98899.70
2023-02-04T05:21:47.705Z,98910.17
2023-02-04T05:22:49.705Z,98915.94
2023-02-04T05:23:51.657Z,98914.30
2023-02-04T05:24:53.663Z,98922.60
2023-02-04T05:25:55.709Z,98923.52
2023-02-04T05:26:58.195Z,98923.30
2023-02-04T05:28:00.068Z,98930.54
2023-02-04T05:29:02.208Z,98932.02
2023-02-04T05:30:04.571Z,98935.83
2023-02-04T05:31:06.589Z,98940.60
2023-02-04T05:32:08.549Z,98945.95
2023-02-04T05:33:10.620Z,98951.67
2023-02-04T05:34:12.789Z,98960.84
2023-02-04T05:35:14.799Z,98966.35
2023-02-04T05:36:17.801Z,98968.93
2023-02-04T05:37:21.036Z,98971.70
2023-02-04T05:38:22.972Z,98980.30
2023-02-04T05:39:24.736Z,98983.42
2023-02-04T05:40:26.705Z,98987.43
2023-02-04T05:41:28.695Z,98995.92
2023-02-04T05:42:30.582Z,99001.48
2023-02-04T05:43:32.466Z,99002.63
2023-02-04T05:44:34.457Z,99005.87
2023-02-04T05:45:36.309Z,99013.33
2023-02-04T05:46:39.284Z,99016.29
2023-02-04T05:47:41.393Z,99017.98
2023-02-04T05:48:43.509Z,99022.88
2023-02-04T05:49:45.333Z,99025.35
2023-02-04T05:50:47.220Z,99032.29
2023-02-04T05:51:49.040Z,99035.16
2023-02-04T05:52:51.193Z,99033.39
2023-02-04T05:53:53.243Z,99036.12
2023-02-04T05:54:55.556Z,99041.23
2023-02-04T05:55:57.486Z,99042.43
2023-02-04T05:56:59.372Z,99048.45
2023-02-04T05:58:01.228Z,99051.69
2023-02-04T05:59:03.358Z,99052.17
2023-02-04T06:00:06.764Z,99058.99
2023-02-04T06:01:14.516Z,99058.48
2023-02-04T06:02:16.484Z,99067.04
2023-02-04T06:03:19.560Z,99069.39
2023-02-04T06:04:21.608Z,99074.43
2023-02-04T06:05:23.556Z,99079.26
2023-02-04T06:06:25.401Z,99082.82
2023-02-04T06:07:27.207Z,99086.52
2023-02-04T06:08:29.268Z,99087.84
2023-02-04T06:09:31.197Z,99095.70
2023-02-04T06:10:33.303Z,99096.92
2023-02-04T06:11:35.544Z,99097.26
2023-02-04T06:12:37.657Z,99102.58
2023-02-04T06:13:39.599Z,99104.96
2023-02-04T06:14:41.459Z,99111.60
2023-02-04T06:15:43.338Z,99112.23
2023-02-04T06:16:45.229Z,99115.36
2023-02-04T06:17:47.625Z,99115.58
2023-02-04T06:18:49.678Z,99117.92
2023-02-04T06:19:52.497Z,99120.42
2023-02-04T06:20:54.285Z,99128.27
2023-02-04T06:21:56.324Z,99134.11
2023-02-04T06:22:58.145Z,99133.23
2023-02-04T06:23:59.957Z,99135.55
2023-02-04T06:25:02.715Z,99141.91
2023-02-04T06:26:05.043Z,99142.80
2023-02-04T06:27:07.007Z,99145.29
2023-02-04T06:28:08.817Z,99148.13
2023-02-04T06:29:10.779Z,99149.45
2023-02-04T06:30:14.179Z,99154.00
2023-02-04T06:31:16.121Z,99162.39
2023-02-04T06:32:18.870Z,99164.13
2023-02-04T06:33:21.420Z,99170.98
2023-02-04T06:34:23.074Z,99176.40
2023-02-04T06:35:25.114Z,99178.31
2023-02-04T06:36:26.997Z,99181.85
2023-02-04T06:37:29.039Z,99186.20
2023-02-04T06:38:30.930Z,99183.13
2023-02-04T06:39:32.803Z,99184.57
2023-02-04T06:40:34.878Z,99183.16
2023-02-04T06:41:36.770Z,99182.27
2023-02-04T06:42:38.641Z,99186.09
2023-02-04T06:43:40.434Z,99188.89
2023-02-04T06:44:42.356Z,99192.39
2023-02-04T06:45:44.256Z,99196.89
2023-02-04T06:46:46.135Z,99196.11
2023-02-04T06:47:47.891Z,99199.53
2023-02-04T06:48:49.791Z,99204.26
2023-02-04T06:49:51.639Z,99204.40
2023-02-04T06:50:53.766Z,99210.69
2023-02-04T06:51:55.817Z,99211.79
2023-02-04T06:52:57.655Z,99213.80
2023-02-04T06:53:59.554Z,99219.88
2023-02-04T06:55:01.812Z,99223.58
2023-02-04T06:56:03.655Z,99223.61
2023-02-04T06:57:08.337Z,99225.90
2023-02-04T06:58:10.105Z,99222.04
2023-02-04T06:59:11.975Z,99229.33
2023-02-04T07:00:14.164Z,99226.96
2023-02-04T07:01:16.055Z,99230.89
2023-02-04T07:02:18.272Z,99228.48
2023-02-04T07:03:20.381Z,99231.97
2023-02-04T07:04:22.373Z,99229.89
2023-02-04T07:05:24.830Z,99236.89
2023-02-04T07:06:26.694Z,99238.81
2023-02-04T07:07:28.681Z,99239.70
2023-02-04T07:08:30.658Z,99240.39
2023-02-04T07:09:32.623Z,99242.70
2023-02-04T07:10:35.050Z,99243.90
2023-02-04T07:11:37.204Z,99243.98
2023-02-04T07:12:39.035Z,99248.95
2023-02-04T07:13:40.990Z,99248.61
2023-02-04T07:14:42.803Z,99251.95
2023-02-04T07:15:44.752Z,99258.91
2023-02-04T07:16:46.846Z,99259.99
2023-02-04T07:17:48.922Z,99262.34
2023-02-04T07:18:50.748Z,99264.63
2023-02-04T07:19:53.109Z,99266.83
2023-02-04T07:20:55.431Z,99267.80
2023-02-04T07:21:57.507Z,99269.41
2023-02-04T07:22:59.293Z,99272.13
2023-02-04T07:24:01.352Z,99274.40
2023-02-04T07:25:03.392Z,99275.15
2023-02-04T07:26:05.634Z,99274.66
2023-02-04T07:27:07.541Z,99277.04
2023-02-04T07:28:09.447Z,99274.46
2023-02-04T07:29:17.465Z,99277.40
2023-02-04T07:30:22.571Z,99278.36
2023-02-04T07:31:24.462Z,99281.80
2023-02-04T07:32:27.982Z,99283.70
2023-02-04T07:33:29.977Z,99284.16
2023-02-04T07:34:31.919Z,99288.95
2023-02-04T07:35:33.867Z,99294.20
2023-02-04T07:36:35.672Z,99293.14
2023-02-04T07:37:37.594Z,99297.36
2023-02-04T07:38:39.406Z,99299.27
2023-02-04T07:39:41.545Z,99300.90
2023-02-04T07:40:43.723Z,99301.50
2023-02-04T07:41:45.967Z,99303.52
2023-02-04T07:42:48.266Z,99308.39
2023-02-04T07:43:51.619Z,99309.69
2023-02-04T07:44:53.393Z,99315.27
2023-02-04T07:45:55.684Z,99313.39
2023-02-04T07:46:57.867Z,99318.42
2023-02-04T07:47:59.826Z,99318.36
2023-02-04T07:49:02.198Z,99317.02
2023-02-04T07:50:04.298Z,99323.02
2023-02-04T07:51:10.562Z,99316.84
2023-02-04T07:52:12.364Z,99328.90
2023-02-04T07:53:14.512Z,99334.02
2023-02-04T07:54:16.473Z,99332.50
2023-02-04T07:55:18.391Z,99332.59
2023-02-04T07:56:20.458Z,99333.36
2023-02-04T07:57:22.297Z,99336.57
2023-02-04T07:58:24.219Z,99338.83
2023-02-04T07:59:26.089Z,99342.61
2023-02-04T08:00:28.157Z,99345.25
2023-02-04T08:01:30.271Z,99345.57
2023-02-04T08:02:32.250Z,99342.67
2023-02-04T08:03:34.151Z,99343.33
2023-02-04T08:04:36.165Z,99347.45
2023-02-04T08:05:38.078Z,99344.02
2023-02-04T08:06:39.954Z,99344.08
2023-02-04T08:07:42.140Z,99342.54
2023-02-04T08:08:44.248Z,99346.40
2023-02-04T08:09:47.044Z,99348.08
2023-02-04T08:10:49.026Z,99353.89
2023-02-04T08:11:50.880Z,99354.25
2023-02-04T08:12:52.681Z,99359.93
2023-02-04T08:13:55.012Z,99365.40
2023-02-04T08:14:57.631Z,99366.02
2023-02-04T08:15:59.507Z,99361.60
2023-02-04T08:17:01.363Z,99363.88
2023-02-04T08:18:03.654Z,99370.08
2023-02-04T08:19:05.387Z,99368.40
2023-02-04T08:20:07.943Z,99370.16
2023-02-04T08:21:09.686Z,99380.05
2023-02-04T08:22:12.280Z,99376.33
2023-02-04T08:23:14.227Z,99380.26
2023-02-04T08:24:16.703Z,99380.59
2023-02-04T08:25:18.572Z,99379.73
2023-02-04T08:26:20.724Z,99379.21
2023-02-04T08:27:22.606Z,99384.27
2023-02-04T08:28:24.758Z,99386.27
2023-02-04T08:29:26.557Z,99386.23
2023-02-04T08:30:28.425Z,99389.61
2023-02-04T08:31:30.806Z,99393.81
2023-02-04T08:32:33.232Z,99399.36
2023-02-04T08:33:35.205Z,99401.25
2023-02-04T08:34:37.201Z,99395.43
2023-02-04T08:35:39.150Z,99402.34
2023-02-04T08:36:41.080Z,99401.95
2023-02-04T08:37:42.964Z,99411.42
2023-02-04T08:38:44.893Z,99418.25
2023-02-04T08:39:47.474Z,99423.17
2023-02-04T08:40:49.389Z,99423.56
2023-02-04T08:41:51.368Z,99423.89
2023-02-04T08:42:53.147Z,99426.17
2023-02-04T08:43:55.547Z,99423.46
2023-02-04T08:44:57.592Z,99426.30
2023-02-04T08:45:59.379Z,99424.48
2023-02-04T08:47:01.486Z,99418.67
2023-02-04T08:48:03.330Z,99421.25
2023-02-04T08:49:05.827Z,99426.38
2023-02-04T08:50:10.827Z,99430.27
2023-02-04T08:51:12.707Z,99434.38
2023-02-04T08:52:14.510Z,99437.94
2023-02-04T08:53:16.466Z,99433.33
2023-02-04T08:54:18.768Z,99435.07
2023-02-04T08:55:20.718Z,99441.15
2023-02-04T08:56:22.613Z,99450.34
2023-02-04T08:57:24.354Z,99447.55
2023-02-04T08:58:26.151Z,99447.33
2023-02-04T08:59:28.617Z,99450.90
2023-02-04T09:00:31.331Z,99458.04
2023-02-04T09:01:33.837Z,99460.34
2023-02-04T09:02:35.657Z,99462.43
2023-02-04T09:03:38.647Z,99465.20
2023-02-04T09:04:40.811Z,99469.08
2023-02-04T09:05:42.695Z,99470.83
2023-02-04T09:06:45.518Z,99477.38
2023-02-04T09:07:47.270Z,99482.53
2023-02-04T09:08:49.305Z,99487.25
2023-02-04T09:09:51.227Z,99488.21
2023-02-04T09:10:53.002Z,99489.25
2023-02-04T09:11:55.070Z,99497.99
2023-02-04T09:12:57.524Z,99500.77
2023-02-04T09:13:59.471Z,99502.42
2023-02-04T09:15:01.268Z,99506.63
2023-02-04T09:16:03.221Z,99504.91
2023-02-04T09:17:05.863Z,99507.30
2023-02-04T09:18:19.189Z,99509.65
2023-02-04T09:19:25.501Z,99513.39
2023-02-04T09:20:29.732Z,99512.88
2023-02-04T09:21:32.135Z,99517.93
2023-02-04T09:22:33.946Z,99521.91
2023-02-04T09:23:35.843Z,99525.11
2023-02-04T09:24:37.800Z,99530.67
2023-02-04T09:25:40.809Z,99531.48
2023-02-04T09:26:42.730Z,99537.27
2023-02-04T09:27:44.576Z,99536.44
2023-02-04T09:28:48.463Z,99533.56
2023-02-04T09:29:50.364Z,99537.48
2023-02-04T09:30:52.239Z,99539.05
2023-02-04T09:31:54.284Z,99543.72
2023-02-04T09:32:56.775Z,99545.61
2023-02-04T09:34:00.085Z,99547.21
2023-02-04T09:35:02.084Z,99549.39
2023-02-04T09:36:04.853Z,99552.28
2023-02-04T09:37:06.678Z,99553.92
2023-02-04T09:38:08.568Z,99551.09
2023-02-04T09:39:11.201Z,99552.45
2023-02-04T09:40:18.698Z,99554.58
2023-02-04T09:41:21.062Z,99551.83
2023-02-04T09:42:26.419Z,99554.59
2023-02-04T09:43:32.000Z,99555.48
2023-02-04T09:44:33.868Z,99555.31
2023-02-04T09:45:36.897Z,99551.88
2023-02-04T09:46:39.012Z,99554.72
2023-02-04T09:47:41.111Z,99556.27
2023-02-04T09:48:42.996Z,99555.86
2023-02-04T09:49:47.000Z,99553.77
2023-02-04T09:50:50.893Z,99551.45
2023-02-04T09:51:54.424Z,99554.44
2023-02-04T09:53:00.643Z,99553.79
2023-02-04T09:54:13.357Z,99559.16
2023-02-04T09:55:18.023Z,99568.26
2023-02-04T09:56:20.715Z,99573.44
2023-02-04T09:57:22.727Z,99573.35
2023-02-04T09:58:31.454Z,99572.23
2023-02-04T09:59:33.404Z,99575.68
2023-02-04T10:00:35.403Z,99579.33
2023-02-04T10:01:37.636Z,99579.30
2023-02-04T10:02:39.700Z,99583.80
2023-02-04T10:03:46.931Z,99584.91
2023-02-04T10:04:51.851Z,99588.91
2023-02-04T10:05:53.945Z,99589.56
2023-02-04T10:07:00.672Z,99590.59
2023-02-04T10:08:05.608Z,99596.13
2023-02-04T10:09:12.310Z,99592.77
2023-02-04T10:10:18.630Z,99595.77
2023-02-04T10:11:23.910Z,99596.44
2023-02-04T10:12:26.065Z,99588.90
2023-02-04T10:13:36.483Z,99595.60
2023-02-04T10:14:38.929Z,99592.30
2023-02-04T10:15:40.922Z,99594.79
2023-02-04T10:16:48.711Z,99598.56
2023-02-04T10:18:01.715Z,99603.02
2023-02-04T10:19:07.665Z,99607.16
2023-02-04T10:20:20.987Z,99607.65
2023-02-04T10:21:32.202Z,99605.06
2023-02-04T10:22:40.397Z,99604.89
2023-02-04T10:23:45.495Z,99605.54
2023-02-04T10:24:47.636Z,99605.99
2023-02-04T10:25:49.496Z,99609.83
2023-02-04T10:26:52.738Z,99610.33
2023-02-04T10:28:00.800Z,99610.69
2023-02-04T10:29:07.407Z,99606.31
2023-02-04T10:30:19.672Z,99607.58
2023-02-04T10:31:29.372Z,99611.09
2023-02-04T10:32:33.915Z,99610.52
2023-02-04T10:33:37.534Z,99610.36
2023-02-04T10:34:40.124Z,99611.58
2023-02-04T10:35:47.234Z,99605.98
2023-02-04T10:36:52.696Z,99613.29
2023-02-04T10:38:07.010Z,99611.77
2023-02-04T10:39:18.199Z,99609.27
2023-02-04T10:40:27.548Z,99611.81
2023-02-04T10:41:29.759Z,99609.49
2023-02-04T10:42:32.494Z,99616.39
2023-02-04T10:43:34.462Z,99611.17
2023-02-04T10:44:36.489Z,99616.12
2023-02-04T10:45:38.859Z,99618.86
2023-02-04T10:46:40.856Z,99616.97
2023-02-04T10:47:51.444Z,99621.98
2023-02-04T10:48:53.365Z,99618.11
2023-02-04T10:50:00.660Z,99617.34
2023-02-04T10:51:02.523Z,99621.66
2023-02-04T10:52:16.630Z,99616.41
2023-02-04T10:53:41.224Z,99621.13
2023-02-04T10:54:44.064Z,99621.59
2023-02-04T10:55:48.377Z,99628.38
2023-02-04T10:56:50.330Z,99626.48
2023-02-04T10:57:53.692Z,99630.77
2023-02-04T10:58:56.258Z,99636.13
2023-02-04T11:00:02.134Z,99636.77
2023-02-04T11:01:09.228Z,99635.62
2023-02-04T11:02:30.043Z,99636.11
2023-02-04T11:03:32.015Z,99628.23
2023-02-04T11:04:34.089Z,99626.42
2023-02-04T11:05:36.512Z,99628.94
2023-02-04T11:06:38.373Z,99629.40
2023-02-04T11:07:40.267Z,99623.80
2023-02-04T11:08:42.854Z,99628.55
2023-02-04T11:09:44.939Z,99626.95
2023-02-04T11:10:50.077Z,99624.41
2023-02-04T11:11:52.292Z,99624.55
2023-02-04T11:12:54.064Z,99625.79
2023-02-04T11:13:56.085Z,99622.84
2023-02-04T11:14:58.633Z,99625.91
2023-02-04T11:16:24.354Z,99619.86
2023-02-04T11:17:34.346Z,99620.95
2023-02-04T11:18:50.297Z,99619.17
2023-02-04T11:19:52.062Z,99617.70
2023-02-04T11:20:59.666Z,99614.98
2023-02-04T11:22:22.819Z,99613.08
2023-02-04T11:23:27.429Z,99606.66
2023-02-04T11:24:34.597Z,99610.84
2023-02-04T11:25:39.659Z,99610.41
2023-02-04T11:26:47.689Z,99610.98
2023-02-04T11:27:49.476Z,99610.61
2023-02-04T11:29:00.375Z,99614.58
2023-02-04T11:30:21.620Z,99610.10
2023-02-04T11:31:23.695Z,99607.05
2023-02-04T11:32:36.225Z,99611.25
2023-02-04T11:33:41.500Z,99617.19
2023-02-04T11:34:55.892Z,99621.86
2023-02-04T11:36:06.849Z,99622.60
2023-02-04T11:37:34.732Z,99621.23
2023-02-04T11:38:38.638Z,99625.20
2023-02-04T11:39:47.265Z,99621.98
2023-02-04T11:40:57.346Z,99630.43
2023-02-04T11:42:00.732Z,99635.05
2023-02-04T11:43:11.058Z,99633.33
2023-02-04T11:44:15.378Z,99633.86
2023-02-04T11:45:24.073Z,99637.59
2023-02-04T11:46:29.468Z,99634.36
2023-02-04T11:47:37.631Z,99632.75
2023-02-04T11:48:40.017Z,99633.75
2023-02-04T11:49:42.210Z,99634.34
2023-02-04T11:50:56.087Z,99635.99
2023-02-04T11:52:08.965Z,99635.56
2023-02-04T11:53:12.350Z,99635.71
2023-02-04T11:54:19.145Z,99629.81
2023-02-04T11:55:21.341Z,99631.60
2023-02-04T11:56:23.848Z,99627.66
2023-02-04T11:57:27.030Z,99624.20
2023-02-04T11:58:31.404Z,99625.74
2023-02-04T11:59:33.331Z,99625.55
2023-02-04T12:00:35.223Z,99625.69
2023-02-04T12:01:37.171Z,99631.08
2023-02-04T12:02:49.131Z,99630.54
2023-02-04T12:03:59.569Z,99624.93
2023-02-04T12:05:14.677Z,99626.40
2023-02-04T12:06:28.254Z,99626.59
2023-02-04T12:07:30.438Z,99628.16
2023-02-04T12:08:36.241Z,99630.98
2023-02-04T12:09:49.138Z,99634.50
2023-02-04T12:11:00.209Z,99636.92
2023-02-04T12:12:03.925Z,99638.02
2023-02-04T12:13:16.885Z,99639.18
2023-02-04T12:14:19.550Z,99643.14
2023-02-04T12:15:36.701Z,99642.73
2023-02-04T12:16:48.718Z,99640.90
2023-02-04T12:18:07.366Z,99639.20
2023-02-04T12:19:09.091Z,99638.65
2023-02-04T12:20:14.172Z,99642.64
2023-02-04T12:21:18.785Z,99644.65
2023-02-04T12:22:20.759Z,99642.41
2023-02-04T12:23:24.087Z,99644.13
2023-02-04T12:24:25.887Z,99643.45
2023-02-04T12:25:27.947Z,99643.86